sensor_id;sensor_type;location;lat;lon;timestamp;P1;durP1;ratioP1;P2;durP2;ratioP2
13801;SDS011;6972;51.518;6.918;2023-07-24T00:01:35;4.72;;;2.67;;
13801;SDS011;6972;51.518;6.918;2023-07-24T00:04:01;3.75;;;2.58;;
13801;SDS011;6972;51.518;6.918;2023-07-24T00:06:30;3.53;;;2.40;;
13801;SDS011;6972;51.518;6.918;2023-07-24T00:08:56;4.38;;;2.47;;
13801;SDS011;6972;51.518;6.918;2023-07-24T00:11:22;3.60;;;2.25;;
13801;SDS011;6972;51.518;6.918;2023-07-24T00:13:48;4.60;;;2.05;;
13801;SDS011;6972;51.518;6.918;2023-07-24T00:16:14;3.63;;;2.60;;
13801;SDS011;6972;51.518;6.918;2023-07-24T00:18:40;4.15;;;2.17;;
13801;SDS011;6972;51.518;6.918;2023-07-24T00:21:06;2.80;;;2.20;;
13801;SDS011;6972;51.518;6.918;2023-07-24T00:23:32;3.55;;;2.30;;
13801;SDS011;6972;51.518;6.918;2023-07-24T00:25:58;2.25;;;2.05;;
13801;SDS011;6972;51.518;6.918;2023-07-24T00:28:24;3.35;;;2.35;;
13801;SDS011;6972;51.518;6.918;2023-07-24T00:30:50;4.22;;;2.10;;
13801;SDS011;6972;51.518;6.918;2023-07-24T00:33:17;3.72;;;2.10;;
13801;SDS011;6972;51.518;6.918;2023-07-24T00:35:43;3.88;;;2.35;;
13801;SDS011;6972;51.518;6.918;2023-07-24T00:38:09;5.00;;;2.47;;
13801;SDS011;6972;51.518;6.918;2023-07-24T00:40:35;3.65;;;2.50;;
13801;SDS011;6972;51.518;6.918;2023-07-24T00:43:01;3.28;;;2.60;;
13801;SDS011;6972;51.518;6.918;2023-07-24T00:45:30;2.63;;;2.42;;
13801;SDS011;6972;51.518;6.918;2023-07-24T00:47:56;3.33;;;2.35;;
13801;SDS011;6972;51.518;6.918;2023-07-24T00:50:22;2.40;;;2.20;;
13801;SDS011;6972;51.518;6.918;2023-07-24T00:52:48;2.22;;;2.03;;
13801;SDS011;6972;51.518;6.918;2023-07-24T00:55:14;4.50;;;2.30;;
13801;SDS011;6972;51.518;6.918;2023-07-24T00:57:41;5.45;;;2.50;;
13801;SDS011;6972;51.518;6.918;2023-07-24T01:00:10;2.95;;;2.60;;
13801;SDS011;6972;51.518;6.918;2023-07-24T01:02:37;2.60;;;2.40;;
13801;SDS011;6972;51.518;6.918;2023-07-24T01:05:04;2.50;;;2.30;;
13801;SDS011;6972;51.518;6.918;2023-07-24T01:07:30;4.22;;;2.63;;
13801;SDS011;6972;51.518;6.918;2023-07-24T01:09:56;3.75;;;2.22;;
13801;SDS011;6972;51.518;6.918;2023-07-24T01:12:25;3.75;;;2.65;;
13801;SDS011;6972;51.518;6.918;2023-07-24T01:14:58;4.55;;;2.20;;
13801;SDS011;6972;51.518;6.918;2023-07-24T01:17:28;2.55;;;1.98;;
13801;SDS011;6972;51.518;6.918;2023-07-24T01:19:57;2.30;;;2.10;;
13801;SDS011;6972;51.518;6.918;2023-07-24T01:22:27;2.60;;;2.10;;
13801;SDS011;6972;51.518;6.918;2023-07-24T01:27:24;2.60;;;2.10;;
13801;SDS011;6972;51.518;6.918;2023-07-24T01:29:50;2.85;;;2.38;;
13801;SDS011;6972;51.518;6.918;2023-07-24T01:32:16;3.15;;;2.28;;
13801;SDS011;6972;51.518;6.918;2023-07-24T01:34:43;2.88;;;2.35;;
13801;SDS011;6972;51.518;6.918;2023-07-24T01:37:09;3.55;;;2.60;;
13801;SDS011;6972;51.518;6.918;2023-07-24T01:39:36;3.75;;;2.42;;
13801;SDS011;6972;51.518;6.918;2023-07-24T01:42:03;3.00;;;2.47;;
13801;SDS011;6972;51.518;6.918;2023-07-24T01:44:29;5.30;;;2.65;;
13801;SDS011;6972;51.518;6.918;2023-07-24T01:46:55;2.90;;;2.30;;
13801;SDS011;6972;51.518;6.918;2023-07-24T01:49:21;3.30;;;2.40;;
13801;SDS011;6972;51.518;6.918;2023-07-24T01:51:47;5.05;;;2.67;;
13801;SDS011;6972;51.518;6.918;2023-07-24T01:54:13;3.90;;;2.45;;
13801;SDS011;6972;51.518;6.918;2023-07-24T01:56:39;2.55;;;2.22;;
13801;SDS011;6972;51.518;6.918;2023-07-24T01:59:05;4.40;;;2.38;;
13801;SDS011;6972;51.518;6.918;2023-07-24T02:01:31;3.47;;;2.15;;
13801;SDS011;6972;51.518;6.918;2023-07-24T02:03:57;3.15;;;2.42;;
13801;SDS011;6972;51.518;6.918;2023-07-24T02:06:24;3.13;;;2.55;;
13801;SDS011;6972;51.518;6.918;2023-07-24T02:08:50;3.28;;;2.40;;
13801;SDS011;6972;51.518;6.918;2023-07-24T02:11:16;4.72;;;2.20;;
13801;SDS011;6972;51.518;6.918;2023-07-24T02:13:45;5.57;;;2.45;;
13801;SDS011;6972;51.518;6.918;2023-07-24T02:16:12;4.05;;;2.53;;
13801;SDS011;6972;51.518;6.918;2023-07-24T02:18:42;5.18;;;2.42;;
13801;SDS011;6972;51.518;6.918;2023-07-24T02:21:08;5.35;;;2.80;;
13801;SDS011;6972;51.518;6.918;2023-07-24T02:23:35;3.50;;;2.40;;
13801;SDS011;6972;51.518;6.918;2023-07-24T02:26:01;4.15;;;2.47;;
13801;SDS011;6972;51.518;6.918;2023-07-24T02:28:27;7.60;;;2.47;;
13801;SDS011;6972;51.518;6.918;2023-07-24T02:30:53;4.32;;;2.60;;
13801;SDS011;6972;51.518;6.918;2023-07-24T02:33:21;2.58;;;2.25;;
13801;SDS011;6972;51.518;6.918;2023-07-24T02:35:49;4.93;;;2.60;;
13801;SDS011;6972;51.518;6.918;2023-07-24T02:38:15;4.55;;;2.47;;
13801;SDS011;6972;51.518;6.918;2023-07-24T02:40:41;5.15;;;2.45;;
13801;SDS011;6972;51.518;6.918;2023-07-24T02:43:07;3.20;;;2.30;;
13801;SDS011;6972;51.518;6.918;2023-07-24T02:45:34;4.47;;;2.55;;
13801;SDS011;6972;51.518;6.918;2023-07-24T02:48:00;4.45;;;2.63;;
13801;SDS011;6972;51.518;6.918;2023-07-24T02:50:28;4.38;;;2.38;;
13801;SDS011;6972;51.518;6.918;2023-07-24T02:52:54;4.15;;;2.53;;
13801;SDS011;6972;51.518;6.918;2023-07-24T02:55:20;4.40;;;2.90;;
13801;SDS011;6972;51.518;6.918;2023-07-24T02:57:46;3.78;;;2.58;;
13801;SDS011;6972;51.518;6.918;2023-07-24T03:00:12;4.28;;;2.60;;
13801;SDS011;6972;51.518;6.918;2023-07-24T03:02:39;5.35;;;2.65;;
13801;SDS011;6972;51.518;6.918;2023-07-24T03:05:05;4.75;;;2.88;;
13801;SDS011;6972;51.518;6.918;2023-07-24T03:07:31;6.35;;;3.00;;
13801;SDS011;6972;51.518;6.918;2023-07-24T03:09:57;3.20;;;2.90;;
13801;SDS011;6972;51.518;6.918;2023-07-24T03:12:24;5.07;;;2.97;;
13801;SDS011;6972;51.518;6.918;2023-07-24T03:14:50;3.95;;;3.03;;
13801;SDS011;6972;51.518;6.918;2023-07-24T03:17:16;3.92;;;2.90;;
13801;SDS011;6972;51.518;6.918;2023-07-24T03:19:42;3.95;;;3.08;;
13801;SDS011;6972;51.518;6.918;2023-07-24T03:22:08;6.35;;;2.92;;
13801;SDS011;6972;51.518;6.918;2023-07-24T03:24:34;3.17;;;2.47;;
13801;SDS011;6972;51.518;6.918;2023-07-24T03:27:01;5.03;;;3.05;;
13801;SDS011;6972;51.518;6.918;2023-07-24T03:29:27;3.10;;;2.80;;
13801;SDS011;6972;51.518;6.918;2023-07-24T03:31:53;7.35;;;3.22;;
13801;SDS011;6972;51.518;6.918;2023-07-24T03:34:19;4.70;;;3.25;;
13801;SDS011;6972;51.518;6.918;2023-07-24T03:36:45;4.82;;;3.30;;
13801;SDS011;6972;51.518;6.918;2023-07-24T03:39:11;9.15;;;3.60;;
13801;SDS011;6972;51.518;6.918;2023-07-24T03:41:38;5.35;;;3.55;;
13801;SDS011;6972;51.518;6.918;2023-07-24T03:44:04;4.65;;;3.28;;
13801;SDS011;6972;51.518;6.918;2023-07-24T03:46:31;5.47;;;3.28;;
13801;SDS011;6972;51.518;6.918;2023-07-24T03:48:57;6.15;;;3.17;;
13801;SDS011;6972;51.518;6.918;2023-07-24T03:51:23;7.70;;;3.13;;
13801;SDS011;6972;51.518;6.918;2023-07-24T03:53:49;8.60;;;3.88;;
13801;SDS011;6972;51.518;6.918;2023-07-24T03:56:15;5.60;;;3.00;;
13801;SDS011;6972;51.518;6.918;2023-07-24T03:58:42;7.30;;;3.53;;
13801;SDS011;6972;51.518;6.918;2023-07-24T04:01:08;7.07;;;3.78;;
13801;SDS011;6972;51.518;6.918;2023-07-24T04:03:34;5.07;;;3.40;;
13801;SDS011;6972;51.518;6.918;2023-07-24T04:06:01;7.22;;;3.70;;
13801;SDS011;6972;51.518;6.918;2023-07-24T04:08:27;4.70;;;3.25;;
13801;SDS011;6972;51.518;6.918;2023-07-24T04:10:53;4.85;;;3.58;;
13801;SDS011;6972;51.518;6.918;2023-07-24T04:13:21;7.35;;;3.80;;
13801;SDS011;6972;51.518;6.918;2023-07-24T04:15:47;4.13;;;3.20;;
13801;SDS011;6972;51.518;6.918;2023-07-24T04:18:13;3.92;;;2.97;;
13801;SDS011;6972;51.518;6.918;2023-07-24T04:20:39;5.90;;;3.30;;
13801;SDS011;6972;51.518;6.918;2023-07-24T04:23:05;8.65;;;3.42;;
13801;SDS011;6972;51.518;6.918;2023-07-24T04:25:31;9.27;;;3.10;;
13801;SDS011;6972;51.518;6.918;2023-07-24T04:27:58;6.07;;;3.33;;
13801;SDS011;6972;51.518;6.918;2023-07-24T04:30:24;7.72;;;3.60;;
13801;SDS011;6972;51.518;6.918;2023-07-24T04:32:50;6.40;;;3.30;;
13801;SDS011;6972;51.518;6.918;2023-07-24T04:35:16;4.05;;;3.13;;
13801;SDS011;6972;51.518;6.918;2023-07-24T04:37:42;8.98;;;3.75;;
13801;SDS011;6972;51.518;6.918;2023-07-24T04:40:08;6.90;;;3.80;;
13801;SDS011;6972;51.518;6.918;2023-07-24T04:42:35;4.18;;;3.50;;
13801;SDS011;6972;51.518;6.918;2023-07-24T04:45:01;3.90;;;3.20;;
13801;SDS011;6972;51.518;6.918;2023-07-24T04:47:27;5.13;;;3.60;;
13801;SDS011;6972;51.518;6.918;2023-07-24T04:49:53;5.95;;;3.67;;
13801;SDS011;6972;51.518;6.918;2023-07-24T04:52:20;9.75;;;4.30;;
13801;SDS011;6972;51.518;6.918;2023-07-24T04:54:46;7.68;;;4.00;;
13801;SDS011;6972;51.518;6.918;2023-07-24T04:57:12;6.35;;;3.42;;
13801;SDS011;6972;51.518;6.918;2023-07-24T04:59:38;5.93;;;3.53;;
13801;SDS011;6972;51.518;6.918;2023-07-24T05:02:04;6.50;;;4.07;;
13801;SDS011;6972;51.518;6.918;2023-07-24T05:04:30;4.90;;;3.75;;
13801;SDS011;6972;51.518;6.918;2023-07-24T05:06:56;4.57;;;3.65;;
13801;SDS011;6972;51.518;6.918;2023-07-24T05:09:22;5.40;;;3.58;;
13801;SDS011;6972;51.518;6.918;2023-07-24T05:11:48;7.72;;;3.85;;
13801;SDS011;6972;51.518;6.918;2023-07-24T05:14:14;8.05;;;4.10;;
13801;SDS011;6972;51.518;6.918;2023-07-24T05:16:40;6.30;;;3.67;;
13801;SDS011;6972;51.518;6.918;2023-07-24T05:19:06;8.77;;;4.00;;
13801;SDS011;6972;51.518;6.918;2023-07-24T05:21:32;7.18;;;4.03;;
13801;SDS011;6972;51.518;6.918;2023-07-24T05:23:58;6.93;;;3.63;;
13801;SDS011;6972;51.518;6.918;2023-07-24T05:26:24;4.55;;;3.20;;
13801;SDS011;6972;51.518;6.918;2023-07-24T05:28:50;7.78;;;4.35;;
13801;SDS011;6972;51.518;6.918;2023-07-24T05:31:17;5.97;;;3.70;;
13801;SDS011;6972;51.518;6.918;2023-07-24T05:33:44;6.20;;;3.60;;
13801;SDS011;6972;51.518;6.918;2023-07-24T05:36:10;5.68;;;3.83;;
13801;SDS011;6972;51.518;6.918;2023-07-24T05:38:36;5.85;;;4.00;;
13801;SDS011;6972;51.518;6.918;2023-07-24T05:41:02;4.13;;;3.72;;
13801;SDS011;6972;51.518;6.918;2023-07-24T05:43:29;5.38;;;4.05;;
13801;SDS011;6972;51.518;6.918;2023-07-24T05:45:55;5.22;;;3.75;;
13801;SDS011;6972;51.518;6.918;2023-07-24T05:48:22;6.72;;;4.40;;
13801;SDS011;6972;51.518;6.918;2023-07-24T05:50:48;8.63;;;4.28;;
13801;SDS011;6972;51.518;6.918;2023-07-24T05:53:14;7.25;;;4.38;;
13801;SDS011;6972;51.518;6.918;2023-07-24T05:55:40;6.25;;;3.78;;
13801;SDS011;6972;51.518;6.918;2023-07-24T05:58:07;8.35;;;4.15;;
13801;SDS011;6972;51.518;6.918;2023-07-24T06:00:34;5.50;;;3.95;;
13801;SDS011;6972;51.518;6.918;2023-07-24T06:03:01;5.45;;;3.60;;
13801;SDS011;6972;51.518;6.918;2023-07-24T06:05:27;5.60;;;3.50;;
13801;SDS011;6972;51.518;6.918;2023-07-24T06:07:53;6.78;;;4.25;;
13801;SDS011;6972;51.518;6.918;2023-07-24T06:10:19;7.47;;;3.67;;
13801;SDS011;6972;51.518;6.918;2023-07-24T06:12:45;7.60;;;3.55;;
13801;SDS011;6972;51.518;6.918;2023-07-24T06:15:12;5.93;;;4.43;;
13801;SDS011;6972;51.518;6.918;2023-07-24T06:17:38;5.03;;;4.00;;
13801;SDS011;6972;51.518;6.918;2023-07-24T06:20:05;5.15;;;4.00;;
13801;SDS011;6972;51.518;6.918;2023-07-24T06:22:31;6.15;;;4.03;;
13801;SDS011;6972;51.518;6.918;2023-07-24T06:24:57;6.78;;;4.45;;
13801;SDS011;6972;51.518;6.918;2023-07-24T06:27:23;7.32;;;4.20;;
13801;SDS011;6972;51.518;6.918;2023-07-24T06:29:49;6.28;;;3.80;;
13801;SDS011;6972;51.518;6.918;2023-07-24T06:32:15;6.65;;;4.50;;
13801;SDS011;6972;51.518;6.918;2023-07-24T06:34:41;5.82;;;3.70;;
13801;SDS011;6972;51.518;6.918;2023-07-24T06:37:07;7.07;;;3.53;;
13801;SDS011;6972;51.518;6.918;2023-07-24T06:39:33;7.32;;;3.88;;
13801;SDS011;6972;51.518;6.918;2023-07-24T06:41:59;4.85;;;3.63;;
13801;SDS011;6972;51.518;6.918;2023-07-24T06:44:25;5.93;;;3.78;;
13801;SDS011;6972;51.518;6.918;2023-07-24T06:46:51;5.88;;;3.70;;
13801;SDS011;6972;51.518;6.918;2023-07-24T06:49:17;5.85;;;3.75;;
13801;SDS011;6972;51.518;6.918;2023-07-24T06:51:43;6.25;;;3.60;;
13801;SDS011;6972;51.518;6.918;2023-07-24T06:54:09;4.97;;;3.38;;
13801;SDS011;6972;51.518;6.918;2023-07-24T06:56:36;4.65;;;3.70;;
13801;SDS011;6972;51.518;6.918;2023-07-24T06:59:02;7.57;;;3.60;;
13801;SDS011;6972;51.518;6.918;2023-07-24T07:01:31;7.88;;;3.70;;
13801;SDS011;6972;51.518;6.918;2023-07-24T07:03:57;6.80;;;3.67;;
13801;SDS011;6972;51.518;6.918;2023-07-24T07:06:23;6.35;;;3.50;;
13801;SDS011;6972;51.518;6.918;2023-07-24T07:08:49;5.55;;;3.88;;
13801;SDS011;6972;51.518;6.918;2023-07-24T07:11:15;6.63;;;4.05;;
13801;SDS011;6972;51.518;6.918;2023-07-24T07:13:41;5.65;;;3.47;;
13801;SDS011;6972;51.518;6.918;2023-07-24T07:16:07;5.72;;;3.63;;
13801;SDS011;6972;51.518;6.918;2023-07-24T07:18:33;8.55;;;4.07;;
13801;SDS011;6972;51.518;6.918;2023-07-24T07:20:59;5.65;;;4.07;;
13801;SDS011;6972;51.518;6.918;2023-07-24T07:23:25;5.40;;;3.70;;
13801;SDS011;6972;51.518;6.918;2023-07-24T07:25:51;5.72;;;3.42;;
13801;SDS011;6972;51.518;6.918;2023-07-24T07:28:17;5.15;;;3.78;;
13801;SDS011;6972;51.518;6.918;2023-07-24T07:30:44;6.07;;;3.90;;
13801;SDS011;6972;51.518;6.918;2023-07-24T07:33:10;3.88;;;3.00;;
13801;SDS011;6972;51.518;6.918;2023-07-24T07:35:36;7.63;;;3.72;;
13801;SDS011;6972;51.518;6.918;2023-07-24T07:38:03;5.10;;;3.80;;
13801;SDS011;6972;51.518;6.918;2023-07-24T07:40:29;5.63;;;3.60;;
13801;SDS011;6972;51.518;6.918;2023-07-24T07:42:55;5.15;;;3.65;;
13801;SDS011;6972;51.518;6.918;2023-07-24T07:45:23;4.97;;;3.47;;
13801;SDS011;6972;51.518;6.918;2023-07-24T07:47:49;8.27;;;3.40;;
13801;SDS011;6972;51.518;6.918;2023-07-24T07:50:16;6.43;;;3.42;;
13801;SDS011;6972;51.518;6.918;2023-07-24T07:52:42;5.93;;;3.10;;
13801;SDS011;6972;51.518;6.918;2023-07-24T07:55:09;3.55;;;2.80;;
13801;SDS011;6972;51.518;6.918;2023-07-24T07:57:36;5.03;;;2.58;;
13801;SDS011;6972;51.518;6.918;2023-07-24T08:00:06;3.35;;;2.28;;
13801;SDS011;6972;51.518;6.918;2023-07-24T08:02:32;4.53;;;2.42;;
13801;SDS011;6972;51.518;6.918;2023-07-24T08:04:59;5.95;;;2.55;;
13801;SDS011;6972;51.518;6.918;2023-07-24T08:07:25;2.47;;;2.25;;
13801;SDS011;6972;51.518;6.918;2023-07-24T08:09:51;2.90;;;2.30;;
13801;SDS011;6972;51.518;6.918;2023-07-24T08:12:17;3.58;;;1.90;;
13801;SDS011;6972;51.518;6.918;2023-07-24T08:14:43;2.90;;;2.00;;
13801;SDS011;6972;51.518;6.918;2023-07-24T08:17:09;2.38;;;1.85;;
13801;SDS011;6972;51.518;6.918;2023-07-24T08:19:35;2.08;;;1.80;;
13801;SDS011;6972;51.518;6.918;2023-07-24T08:22:01;3.83;;;1.90;;
13801;SDS011;6972;51.518;6.918;2023-07-24T08:24:27;2.33;;;1.95;;
13801;SDS011;6972;51.518;6.918;2023-07-24T08:26:53;2.03;;;1.83;;
13801;SDS011;6972;51.518;6.918;2023-07-24T08:29:19;4.70;;;1.90;;
13801;SDS011;6972;51.518;6.918;2023-07-24T08:31:45;3.03;;;2.00;;
13801;SDS011;6972;51.518;6.918;2023-07-24T08:34:11;3.20;;;1.98;;
13801;SDS011;6972;51.518;6.918;2023-07-24T08:36:37;3.10;;;1.88;;
13801;SDS011;6972;51.518;6.918;2023-07-24T08:39:03;4.47;;;2.28;;
13801;SDS011;6972;51.518;6.918;2023-07-24T08:41:29;2.28;;;2.08;;
13801;SDS011;6972;51.518;6.918;2023-07-24T08:43:57;3.50;;;1.95;;
13801;SDS011;6972;51.518;6.918;2023-07-24T08:46:23;3.35;;;2.03;;
13801;SDS011;6972;51.518;6.918;2023-07-24T08:48:50;2.20;;;1.85;;
13801;SDS011;6972;51.518;6.918;2023-07-24T08:51:17;2.50;;;1.63;;
13801;SDS011;6972;51.518;6.918;2023-07-24T08:53:43;4.38;;;1.95;;
13801;SDS011;6972;51.518;6.918;2023-07-24T08:56:11;1.70;;;1.60;;
13801;SDS011;6972;51.518;6.918;2023-07-24T08:58:37;3.65;;;1.98;;
13801;SDS011;6972;51.518;6.918;2023-07-24T09:01:07;3.00;;;1.73;;
13801;SDS011;6972;51.518;6.918;2023-07-24T09:03:34;2.65;;;1.88;;
13801;SDS011;6972;51.518;6.918;2023-07-24T09:06:00;2.13;;;1.60;;
13801;SDS011;6972;51.518;6.918;2023-07-24T09:11:02;2.17;;;1.85;;
13801;SDS011;6972;51.518;6.918;2023-07-24T09:13:29;3.25;;;2.75;;
13801;SDS011;6972;51.518;6.918;2023-07-24T09:15:55;4.75;;;2.70;;
13801;SDS011;6972;51.518;6.918;2023-07-24T09:18:21;2.80;;;2.55;;
13801;SDS011;6972;51.518;6.918;2023-07-24T09:20:47;2.70;;;2.20;;
13801;SDS011;6972;51.518;6.918;2023-07-24T09:23:14;2.38;;;1.83;;
13801;SDS011;6972;51.518;6.918;2023-07-24T09:25:41;2.30;;;1.80;;
13801;SDS011;6972;51.518;6.918;2023-07-24T09:28:14;2.10;;;1.90;;
13801;SDS011;6972;51.518;6.918;2023-07-24T09:30:41;2.20;;;1.67;;
13801;SDS011;6972;51.518;6.918;2023-07-24T09:33:09;2.33;;;1.77;;
13801;SDS011;6972;51.518;6.918;2023-07-24T09:35:35;2.65;;;1.63;;
13801;SDS011;6972;51.518;6.918;2023-07-24T09:38:05;2.38;;;1.50;;
13801;SDS011;6972;51.518;6.918;2023-07-24T09:41:05;1.55;;;1.40;;
13801;SDS011;6972;51.518;6.918;2023-07-24T09:43:24;3.05;;;1.85;;
13801;SDS011;6972;51.518;6.918;2023-07-24T09:45:51;1.80;;;1.50;;
13801;SDS011;6972;51.518;6.918;2023-07-24T09:48:19;2.63;;;1.58;;
13801;SDS011;6972;51.518;6.918;2023-07-24T09:50:46;2.65;;;1.80;;
13801;SDS011;6972;51.518;6.918;2023-07-24T09:55:49;1.58;;;1.48;;
13801;SDS011;6972;51.518;6.918;2023-07-24T09:58:18;5.53;;;1.67;;
13801;SDS011;6972;51.518;6.918;2023-07-24T10:00:44;2.22;;;1.50;;
13801;SDS011;6972;51.518;6.918;2023-07-24T10:03:11;3.25;;;1.50;;
13801;SDS011;6972;51.518;6.918;2023-07-24T10:05:37;2.00;;;1.48;;
13801;SDS011;6972;51.518;6.918;2023-07-24T10:08:03;2.05;;;1.45;;
13801;SDS011;6972;51.518;6.918;2023-07-24T10:10:30;2.97;;;1.52;;
13801;SDS011;6972;51.518;6.918;2023-07-24T10:12:57;1.50;;;1.40;;
13801;SDS011;6972;51.518;6.918;2023-07-24T10:15:24;3.15;;;1.80;;
13801;SDS011;6972;51.518;6.918;2023-07-24T10:18:00;3.30;;;1.88;;
13801;SDS011;6972;51.518;6.918;2023-07-24T10:20:32;3.42;;;1.88;;
13801;SDS011;6972;51.518;6.918;2023-07-24T10:23:00;4.93;;;2.15;;
13801;SDS011;6972;51.518;6.918;2023-07-24T10:25:30;2.45;;;1.70;;
13801;SDS011;6972;51.518;6.918;2023-07-24T10:28:00;1.83;;;1.48;;
13801;SDS011;6972;51.518;6.918;2023-07-24T10:30:30;3.20;;;1.75;;
13801;SDS011;6972;51.518;6.918;2023-07-24T10:33:06;1.90;;;1.70;;
13801;SDS011;6972;51.518;6.918;2023-07-24T10:35:45;2.92;;;1.77;;
13801;SDS011;6972;51.518;6.918;2023-07-24T10:38:15;2.63;;;1.85;;
13801;SDS011;6972;51.518;6.918;2023-07-24T10:40:42;3.60;;;2.20;;
13801;SDS011;6972;51.518;6.918;2023-07-24T10:43:09;2.70;;;2.50;;
13801;SDS011;6972;51.518;6.918;2023-07-24T10:45:40;3.30;;;2.30;;
13801;SDS011;6972;51.518;6.918;2023-07-24T10:48:06;4.25;;;2.63;;
13801;SDS011;6972;51.518;6.918;2023-07-24T10:50:36;4.30;;;2.55;;
13801;SDS011;6972;51.518;6.918;2023-07-24T10:53:05;3.78;;;3.30;;
13801;SDS011;6972;51.518;6.918;2023-07-24T10:55:31;4.22;;;2.88;;
13801;SDS011;6972;51.518;6.918;2023-07-24T10:57:57;5.60;;;3.45;;
13801;SDS011;6972;51.518;6.918;2023-07-24T11:00:23;4.35;;;3.10;;
13801;SDS011;6972;51.518;6.918;2023-07-24T11:02:49;4.45;;;3.00;;
13801;SDS011;6972;51.518;6.918;2023-07-24T11:05:18;3.50;;;2.40;;
13801;SDS011;6972;51.518;6.918;2023-07-24T11:07:46;5.13;;;2.70;;
13801;SDS011;6972;51.518;6.918;2023-07-24T11:10:15;3.03;;;2.50;;
13801;SDS011;6972;51.518;6.918;2023-07-24T11:12:41;2.90;;;2.53;;
13801;SDS011;6972;51.518;6.918;2023-07-24T11:15:08;3.50;;;2.50;;
13801;SDS011;6972;51.518;6.918;2023-07-24T11:17:34;4.70;;;2.75;;
13801;SDS011;6972;51.518;6.918;2023-07-24T11:20:19;3.42;;;2.85;;
13801;SDS011;6972;51.518;6.918;2023-07-24T11:22:46;4.15;;;3.20;;
13801;SDS011;6972;51.518;6.918;2023-07-24T11:25:12;5.38;;;3.05;;
13801;SDS011;6972;51.518;6.918;2023-07-24T11:27:41;2.92;;;2.55;;
13801;SDS011;6972;51.518;6.918;2023-07-24T11:30:09;3.33;;;2.60;;
13801;SDS011;6972;51.518;6.918;2023-07-24T11:32:37;4.63;;;2.47;;
13801;SDS011;6972;51.518;6.918;2023-07-24T11:35:03;7.15;;;3.25;;
13801;SDS011;6972;51.518;6.918;2023-07-24T11:37:30;3.33;;;2.53;;
13801;SDS011;6972;51.518;6.918;2023-07-24T11:40:01;3.80;;;2.63;;
13801;SDS011;6972;51.518;6.918;2023-07-24T11:42:42;3.72;;;3.03;;
13801;SDS011;6972;51.518;6.918;2023-07-24T11:45:09;3.15;;;2.53;;
13801;SDS011;6972;51.518;6.918;2023-07-24T11:47:49;4.80;;;2.90;;
13801;SDS011;6972;51.518;6.918;2023-07-24T11:50:15;3.15;;;2.60;;
13801;SDS011;6972;51.518;6.918;2023-07-24T11:52:46;4.38;;;2.65;;
13801;SDS011;6972;51.518;6.918;2023-07-24T11:55:12;10.68;;;2.75;;
13801;SDS011;6972;51.518;6.918;2023-07-24T11:57:39;4.53;;;2.40;;
13801;SDS011;6972;51.518;6.918;2023-07-24T12:00:21;2.30;;;2.10;;
13801;SDS011;6972;51.518;6.918;2023-07-24T12:02:47;4.15;;;2.53;;
13801;SDS011;6972;51.518;6.918;2023-07-24T12:05:14;4.13;;;2.30;;
13801;SDS011;6972;51.518;6.918;2023-07-24T12:07:42;3.40;;;2.60;;
13801;SDS011;6972;51.518;6.918;2023-07-24T12:10:09;4.35;;;2.65;;
13801;SDS011;6972;51.518;6.918;2023-07-24T12:12:45;2.88;;;2.50;;
13801;SDS011;6972;51.518;6.918;2023-07-24T12:15:11;3.67;;;2.55;;
13801;SDS011;6972;51.518;6.918;2023-07-24T12:17:38;3.83;;;2.38;;
13801;SDS011;6972;51.518;6.918;2023-07-24T12:20:04;3.55;;;2.40;;
13801;SDS011;6972;51.518;6.918;2023-07-24T12:22:33;4.85;;;2.38;;
13801;SDS011;6972;51.518;6.918;2023-07-24T12:24:59;3.25;;;2.53;;
13801;SDS011;6972;51.518;6.918;2023-07-24T12:27:25;2.78;;;2.20;;
13801;SDS011;6972;51.518;6.918;2023-07-24T12:29:52;5.55;;;2.47;;
13801;SDS011;6972;51.518;6.918;2023-07-24T12:32:18;2.97;;;1.98;;
13801;SDS011;6972;51.518;6.918;2023-07-24T12:34:47;2.58;;;1.90;;
13801;SDS011;6972;51.518;6.918;2023-07-24T12:37:14;2.10;;;1.80;;
13801;SDS011;6972;51.518;6.918;2023-07-24T12:39:40;3.13;;;2.00;;
13801;SDS011;6972;51.518;6.918;2023-07-24T12:42:06;4.05;;;2.20;;
13801;SDS011;6972;51.518;6.918;2023-07-24T12:44:32;1.85;;;1.70;;
13801;SDS011;6972;51.518;6.918;2023-07-24T12:46:58;2.47;;;2.00;;
13801;SDS011;6972;51.518;6.918;2023-07-24T12:49:24;2.78;;;1.70;;
13801;SDS011;6972;51.518;6.918;2023-07-24T12:51:50;2.75;;;1.77;;
13801;SDS011;6972;51.518;6.918;2023-07-24T12:54:16;2.20;;;1.50;;
13801;SDS011;6972;51.518;6.918;2023-07-24T12:56:44;2.00;;;1.67;;
13801;SDS011;6972;51.518;6.918;2023-07-24T12:59:10;2.65;;;1.83;;
13801;SDS011;6972;51.518;6.918;2023-07-24T13:01:36;2.17;;;1.77;;
13801;SDS011;6972;51.518;6.918;2023-07-24T13:04:03;4.20;;;1.70;;
13801;SDS011;6972;51.518;6.918;2023-07-24T13:06:29;2.08;;;1.55;;
13801;SDS011;6972;51.518;6.918;2023-07-24T13:08:55;4.13;;;1.80;;
13801;SDS011;6972;51.518;6.918;2023-07-24T13:11:21;2.45;;;1.83;;
13801;SDS011;6972;51.518;6.918;2023-07-24T13:13:47;2.90;;;2.03;;
13801;SDS011;6972;51.518;6.918;2023-07-24T13:16:15;3.47;;;2.22;;
13801;SDS011;6972;51.518;6.918;2023-07-24T13:18:41;4.50;;;2.25;;
13801;SDS011;6972;51.518;6.918;2023-07-24T13:21:07;3.70;;;1.77;;
13801;SDS011;6972;51.518;6.918;2023-07-24T13:23:33;3.80;;;2.40;;
13801;SDS011;6972;51.518;6.918;2023-07-24T13:25:59;2.90;;;2.20;;
13801;SDS011;6972;51.518;6.918;2023-07-24T13:28:26;3.40;;;1.92;;
13801;SDS011;6972;51.518;6.918;2023-07-24T13:30:52;2.33;;;1.90;;
13801;SDS011;6972;51.518;6.918;2023-07-24T13:33:18;2.35;;;1.95;;
13801;SDS011;6972;51.518;6.918;2023-07-24T13:35:44;2.03;;;1.80;;
13801;SDS011;6972;51.518;6.918;2023-07-24T13:38:10;2.40;;;2.08;;
13801;SDS011;6972;51.518;6.918;2023-07-24T13:40:37;3.97;;;1.98;;
13801;SDS011;6972;51.518;6.918;2023-07-24T13:43:03;3.05;;;2.10;;
13801;SDS011;6972;51.518;6.918;2023-07-24T13:45:29;3.30;;;1.90;;
13801;SDS011;6972;51.518;6.918;2023-07-24T13:47:56;2.20;;;1.92;;
13801;SDS011;6972;51.518;6.918;2023-07-24T13:50:23;2.22;;;2.03;;
13801;SDS011;6972;51.518;6.918;2023-07-24T13:52:49;3.05;;;2.03;;
13801;SDS011;6972;51.518;6.918;2023-07-24T13:55:15;2.97;;;2.30;;
13801;SDS011;6972;51.518;6.918;2023-07-24T13:57:41;3.95;;;1.95;;
13801;SDS011;6972;51.518;6.918;2023-07-24T14:00:07;3.80;;;2.13;;
13801;SDS011;6972;51.518;6.918;2023-07-24T14:02:34;2.30;;;2.10;;
13801;SDS011;6972;51.518;6.918;2023-07-24T14:05:00;2.88;;;2.30;;
13801;SDS011;6972;51.518;6.918;2023-07-24T14:07:26;5.40;;;2.10;;
13801;SDS011;6972;51.518;6.918;2023-07-24T14:09:52;2.47;;;2.03;;
13801;SDS011;6972;51.518;6.918;2023-07-24T14:12:18;3.58;;;1.90;;
13801;SDS011;6972;51.518;6.918;2023-07-24T14:14:44;1.92;;;1.73;;
13801;SDS011;6972;51.518;6.918;2023-07-24T14:17:10;2.03;;;1.80;;
13801;SDS011;6972;51.518;6.918;2023-07-24T14:19:36;3.50;;;2.00;;
13801;SDS011;6972;51.518;6.918;2023-07-24T14:22:05;3.60;;;1.95;;
13801;SDS011;6972;51.518;6.918;2023-07-24T14:24:31;1.85;;;1.65;;
13801;SDS011;6972;51.518;6.918;2023-07-24T14:26:57;2.25;;;1.80;;
13801;SDS011;6972;51.518;6.918;2023-07-24T14:29:23;1.92;;;1.58;;
13801;SDS011;6972;51.518;6.918;2023-07-24T14:31:49;3.33;;;1.77;;
13801;SDS011;6972;51.518;6.918;2023-07-24T14:34:15;2.20;;;1.70;;
13801;SDS011;6972;51.518;6.918;2023-07-24T14:36:41;1.70;;;1.60;;
13801;SDS011;6972;51.518;6.918;2023-07-24T14:39:07;2.15;;;1.50;;
13801;SDS011;6972;51.518;6.918;2023-07-24T14:41:34;3.88;;;1.83;;
13801;SDS011;6972;51.518;6.918;2023-07-24T14:44:00;3.40;;;1.58;;
13801;SDS011;6972;51.518;6.918;2023-07-24T14:46:26;3.38;;;1.42;;
13801;SDS011;6972;51.518;6.918;2023-07-24T14:48:52;3.58;;;1.52;;
13801;SDS011;6972;51.518;6.918;2023-07-24T14:51:18;1.40;;;1.30;;
13801;SDS011;6972;51.518;6.918;2023-07-24T14:53:44;3.75;;;1.70;;
13801;SDS011;6972;51.518;6.918;2023-07-24T14:56:10;2.45;;;1.52;;
13801;SDS011;6972;51.518;6.918;2023-07-24T14:58:36;3.75;;;1.70;;
13801;SDS011;6972;51.518;6.918;2023-07-24T15:01:02;2.25;;;1.50;;
13801;SDS011;6972;51.518;6.918;2023-07-24T15:03:29;1.63;;;1.50;;
13801;SDS011;6972;51.518;6.918;2023-07-24T15:05:55;2.05;;;1.60;;